Time;durP1;ratioP1;P1;durP2;ratioP2;P2;SDS_P1;SDS_P2;PMS_P1;PMS_P2;Temp;Humidity;BMP_temperature;BMP_pressure;BME280_temperature;BME280_humidity;BME280_pressure;Samples;Min_cycle;Max_cycle;Signal;HPM_P1;HPM_P2
2023/12/23 00:01:25;;;;;;;14.77;12.90;;;;;;;;;;5129851;27;20031;-74
2023/12/23 00:03:51;;;;;;;17.10;11.48;;;;;;;;;;5109595;27;20039;-75
2023/12/23 00:06:17;;;;;;;15.50;13.90;;;;;;;;;;5109805;28;20023;-75
2023/12/23 00:08:43;;;;;;;17.13;14.20;;;;;;;;;;5096372;27;20114;-74
2023/12/23 00:11:09;;;;;;;15.45;12.18;;;;;;;;;;5132821;27;20114;-75
2023/12/23 00:13:35;;;;;;;14.60;13.00;;;;;;;;;;5133080;27;20031;-74
2023/12/23 00:16:01;;;;;;;16.23;14.20;;;;;;;;;;5115300;27;20031;-75
2023/12/23 00:18:27;;;;;;;19.95;14.32;;;;;;;;;;5117506;27;20046;-74
2023/12/23 00:20:54;;;;;;;14.73;11.02;;;;;;;;;;5141238;27;20023;-75
2023/12/23 00:23:20;;;;;;;14.30;12.85;;;;;;;;;;5141054;27;20099;-75
2023/12/23 00:25:46;;;;;;;18.67;15.43;;;;;;;;;;5136594;27;20035;-74
2023/12/23 00:28:12;;;;;;;17.80;14.50;;;;;;;;;;5115885;27;20406;-74
2023/12/23 00:30:38;;;;;;;16.58;14.70;;;;;;;;;;5096622;27;20035;-75
2023/12/23 00:33:05;;;;;;;21.58;13.50;;;;;;;;;;5132166;27;20598;-76
2023/12/23 00:35:31;;;;;;;22.25;14.55;;;;;;;;;;5112923;27;20110;-75
2023/12/23 00:37:56;;;;;;;21.55;15.27;;;;;;;;;;5130819;27;20146;-75
2023/12/23 00:40:23;;;;;;;16.80;14.23;;;;;;;;;;5132824;27;20658;-75
2023/12/23 00:42:48;;;;;;;16.20;13.95;;;;;;;;;;5130226;27;20039;-75
2023/12/23 00:45:14;;;;;;;16.50;12.68;;;;;;;;;;5131313;27;20557;-75
2023/12/23 00:47:40;;;;;;;14.93;10.82;;;;;;;;;;5112379;27;20392;-74
2023/12/23 00:50:06;;;;;;;17.92;14.95;;;;;;;;;;5132818;27;20083;-76
2023/12/23 00:52:32;;;;;;;24.77;12.65;;;;;;;;;;5131240;27;20039;-74
2023/12/23 00:54:58;;;;;;;13.02;11.90;;;;;;;;;;5130908;27;20056;-75
2023/12/23 00:57:24;;;;;;;15.45;12.30;;;;;;;;;;5131290;27;20409;-75
2023/12/23 00:59:51;;;;;;;15.48;13.93;;;;;;;;;;5130787;27;20083;-74
2023/12/23 01:02:17;;;;;;;11.93;10.77;;;;;;;;;;5132590;27;20064;-75
2023/12/23 01:04:43;;;;;;;12.95;11.32;;;;;;;;;;5131063;27;20100;-74
2023/12/23 01:07:10;;;;;;;10.38;9.43;;;;;;;;;;5112669;27;20358;-74
2023/12/23 01:09:36;;;;;;;15.40;10.50;;;;;;;;;;5095916;27;20037;-74
2023/12/23 01:12:02;;;;;;;11.48;10.38;;;;;;;;;;5095791;27;20545;-73
2023/12/23 01:14:29;;;;;;;16.27;12.98;;;;;;;;;;5133818;27;20071;-74
2023/12/23 01:16:54;;;;;;;13.50;11.88;;;;;;;;;;5134494;27;20763;-74
2023/12/23 01:19:20;;;;;;;15.60;11.27;;;;;;;;;;5133347;27;20035;-75
2023/12/23 01:21:46;;;;;;;12.10;10.90;;;;;;;;;;5112300;27;20185;-74
2023/12/23 01:24:12;;;;;;;10.60;9.48;;;;;;;;;;5128250;27;20049;-75
2023/12/23 01:26:38;;;;;;;19.30;12.07;;;;;;;;;;5111005;27;20111;-74
2023/12/23 01:29:04;;;;;;;12.50;11.25;;;;;;;;;;5131196;27;20027;-75
2023/12/23 01:31:30;;;;;;;14.18;12.80;;;;;;;;;;5112023;27;20051;-76
2023/12/23 01:33:56;;;;;;;13.95;12.63;;;;;;;;;;5130254;27;20031;-75
2023/12/23 01:36:22;;;;;;;12.05;10.88;;;;;;;;;;5130540;27;20026;-75
2023/12/23 01:38:48;;;;;;;14.57;13.07;;;;;;;;;;5111805;27;20395;-74
2023/12/23 01:41:14;;;;;;;17.83;11.98;;;;;;;;;;5131818;27;20057;-76
2023/12/23 01:43:40;;;;;;;18.75;13.25;;;;;;;;;;5130505;27;20058;-75
2023/12/23 01:46:06;;;;;;;11.15;10.07;;;;;;;;;;5111509;27;20061;-74
2023/12/23 01:48:34;;;;;;;14.52;12.30;;;;;;;;;;5130895;27;20570;-74
2023/12/23 01:51:00;;;;;;;18.80;14.07;;;;;;;;;;5111285;27;20044;-74
2023/12/23 01:53:26;;;;;;;13.50;9.57;;;;;;;;;;5113182;27;20039;-75
2023/12/23 01:55:52;;;;;;;13.75;9.95;;;;;;;;;;5093045;27;20093;-74
2023/12/23 01:58:18;;;;;;;18.27;11.48;;;;;;;;;;5129827;27;20463;-74
2023/12/23 02:00:44;;;;;;;15.43;11.10;;;;;;;;;;5129653;27;20033;-76
2023/12/23 02:03:10;;;;;;;10.15;8.00;;;;;;;;;;5111974;27;20031;-73
2023/12/23 02:05:36;;;;;;;18.05;13.38;;;;;;;;;;5130525;27;20031;-74
2023/12/23 02:08:02;;;;;;;10.57;9.52;;;;;;;;;;5130519;27;20031;-74
2023/12/23 02:10:28;;;;;;;16.58;11.93;;;;;;;;;;5129715;27;20059;-74
2023/12/23 02:13:13;;;;;;;10.75;9.68;;;;;;;;;;5129394;27;20471;-74
2023/12/23 02:15:41;;;;;;;16.70;12.40;;;;;;;;;;5110638;27;20072;-73
2023/12/23 02:18:07;;;;;;;13.95;10.82;;;;;;;;;;5130061;27;20490;-74
2023/12/23 02:20:33;;;;;;;12.25;8.85;;;;;;;;;;5122487;27;20035;-73
2023/12/23 02:22:59;;;;;;;15.25;10.65;;;;;;;;;;5146473;27;20062;-73
2023/12/23 02:25:26;;;;;;;19.10;10.88;;;;;;;;;;5110587;27;20031;-74
2023/12/23 02:27:56;;;;;;;11.50;10.32;;;;;;;;;;5094761;27;20034;-73
2023/12/23 02:30:22;;;;;;;12.50;11.30;;;;;;;;;;5111455;27;20050;-73
2023/12/23 02:32:49;;;;;;;12.23;10.93;;;;;;;;;;5112817;27;20202;-73
2023/12/23 02:35:14;;;;;;;14.50;11.82;;;;;;;;;;5131476;27;20554;-73
2023/12/23 02:37:41;;;;;;;9.13;8.43;;;;;;;;;;5099808;27;20590;-74
2023/12/23 02:40:08;;;;;;;16.98;12.43;;;;;;;;;;5121737;27;20023;-74
2023/12/23 02:42:34;;;;;;;9.38;8.68;;;;;;;;;;5129937;27;20027;-74
2023/12/23 02:45:00;;;;;;;9.60;8.65;;;;;;;;;;5128921;27;20561;-73
2023/12/23 02:47:26;;;;;;;9.00;8.10;;;;;;;;;;5095598;27;20084;-74
2023/12/23 02:49:52;;;;;;;8.52;6.95;;;;;;;;;;5108181;27;20044;-73
2023/12/23 02:52:17;;;;;;;8.23;7.63;;;;;;;;;;5111002;27;20043;-74
2023/12/23 02:54:43;;;;;;;9.05;8.27;;;;;;;;;;5094059;27;20023;-75
2023/12/23 02:57:09;;;;;;;8.85;8.02;;;;;;;;;;5110798;27;20043;-73
2023/12/23 02:59:35;;;;;;;9.38;8.48;;;;;;;;;;5095105;27;20038;-73
2023/12/23 03:02:01;;;;;;;8.85;8.05;;;;;;;;;;5128826;27;20035;-73
2023/12/23 03:04:29;;;;;;;8.65;8.02;;;;;;;;;;5129843;27;20717;-73
2023/12/23 03:06:54;;;;;;;6.97;6.38;;;;;;;;;;5097549;27;20559;-74
2023/12/23 03:09:21;;;;;;;11.60;10.15;;;;;;;;;;5135008;27;20042;-72
2023/12/23 03:11:47;;;;;;;7.07;6.47;;;;;;;;;;5111805;27;20046;-73
2023/12/23 03:14:13;;;;;;;6.13;5.68;;;;;;;;;;5118342;28;20035;-73
2023/12/23 03:16:40;;;;;;;8.00;6.60;;;;;;;;;;5078710;27;20414;-73
2023/12/23 03:19:05;;;;;;;12.68;11.52;;;;;;;;;;5128851;27;20024;-74
2023/12/23 03:21:32;;;;;;;8.90;7.32;;;;;;;;;;5129745;27;20037;-74
2023/12/23 03:23:57;;;;;;;7.85;7.25;;;;;;;;;;5110420;28;20027;-73
2023/12/23 03:26:25;;;;;;;6.75;6.25;;;;;;;;;;5094633;27;20473;-74
2023/12/23 03:28:50;;;;;;;7.68;6.97;;;;;;;;;;5077000;27;20038;-74
2023/12/23 03:31:16;;;;;;;7.82;7.20;;;;;;;;;;5076958;28;20053;-73
2023/12/23 03:33:42;;;;;;;7.50;6.93;;;;;;;;;;5129486;27;20114;-74
2023/12/23 03:36:08;;;;;;;8.60;7.43;;;;;;;;;;5128881;27;20027;-74
2023/12/23 03:38:35;;;;;;;6.53;6.03;;;;;;;;;;5093978;27;20063;-73
2023/12/23 03:41:01;;;;;;;10.95;8.32;;;;;;;;;;5128571;27;20039;-73
2023/12/23 03:43:28;;;;;;;7.35;6.80;;;;;;;;;;5112623;27;20043;-72
2023/12/23 03:45:53;;;;;;;7.38;6.72;;;;;;;;;;5132688;27;20096;-73
2023/12/23 03:48:19;;;;;;;8.45;7.85;;;;;;;;;;5097491;27;20031;-72
2023/12/23 03:50:46;;;;;;;8.20;7.55;;;;;;;;;;5113694;27;20043;-74
2023/12/23 03:53:12;;;;;;;7.00;6.30;;;;;;;;;;5133782;27;20117;-74
2023/12/23 03:55:39;;;;;;;6.57;4.40;;;;;;;;;;5113694;27;20030;-72
2023/12/23 03:58:05;;;;;;;7.00;6.40;;;;;;;;;;5113533;27;20091;-72
2023/12/23 04:00:32;;;;;;;5.82;5.43;;;;;;;;;;5130700;27;20038;-73
2023/12/23 04:02:58;;;;;;;6.45;5.95;;;;;;;;;;5132185;27;20034;-72
2023/12/23 04:05:24;;;;;;;6.50;5.97;;;;;;;;;;5114739;27;20067;-73
2023/12/23 04:07:50;;;;;;;5.07;4.68;;;;;;;;;;5079462;27;20035;-73
2023/12/23 04:10:17;;;;;;;5.95;5.45;;;;;;;;;;5130847;27;20049;-74
2023/12/23 04:12:45;;;;;;;4.88;4.57;;;;;;;;;;5096688;27;20194;-73
2023/12/23 04:15:11;;;;;;;6.10;5.60;;;;;;;;;;5096814;27;20034;-73
2023/12/23 04:17:40;;;;;;;6.18;5.70;;;;;;;;;;5096671;27;20418;-73
2023/12/23 04:20:07;;;;;;;7.40;6.80;;;;;;;;;;5096075;27;20076;-73
2023/12/23 04:22:32;;;;;;;7.28;6.57;;;;;;;;;;5131559;27;20031;-73
2023/12/23 04:24:58;;;;;;;5.65;5.25;;;;;;;;;;5112815;27;20042;-73
2023/12/23 04:27:24;;;;;;;5.88;5.38;;;;;;;;;;5113343;27;20113;-73
2023/12/23 04:29:51;;;;;;;7.55;6.90;;;;;;;;;;5131393;27;20039;-73
2023/12/23 04:32:17;;;;;;;8.80;7.75;;;;;;;;;;5114761;27;20051;-73
2023/12/23 04:34:43;;;;;;;6.80;6.20;;;;;;;;;;5096213;27;20037;-74
2023/12/23 04:37:09;;;;;;;8.52;7.72;;;;;;;;;;5113048;27;20027;-73
2023/12/23 04:39:35;;;;;;;7.43;6.47;;;;;;;;;;5113070;27;20058;-73
2023/12/23 04:42:03;;;;;;;6.90;6.30;;;;;;;;;;5086759;27;20410;-73
2023/12/23 04:44:30;;;;;;;5.45;5.05;;;;;;;;;;5109769;27;20038;-74
2023/12/23 04:46:56;;;;;;;6.32;5.88;;;;;;;;;;5131064;27;20422;-73
2023/12/23 04:49:22;;;;;;;9.10;8.23;;;;;;;;;;5112749;27;20035;-74
2023/12/23 04:51:48;;;;;;;6.75;6.00;;;;;;;;;;5112202;27;20413;-72
2023/12/23 04:54:15;;;;;;;7.43;6.28;;;;;;;;;;5096170;27;20117;-73
2023/12/23 04:56:41;;;;;;;10.70;8.43;;;;;;;;;;5112865;27;20027;-72
2023/12/23 04:59:08;;;;;;;9.27;8.02;;;;;;;;;;5113498;27;20099;-73
2023/12/23 05:01:34;;;;;;;13.45;8.80;;;;;;;;;;5112384;27;20035;-73
2023/12/23 05:04:00;;;;;;;10.15;8.10;;;;;;;;;;5132652;27;20065;-73
2023/12/23 05:06:26;;;;;;;14.77;10.80;;;;;;;;;;5097112;27;20649;-74
2023/12/23 05:08:52;;;;;;;10.02;9.15;;;;;;;;;;5134023;27;20110;-74
2023/12/23 05:11:18;;;;;;;11.40;8.90;;;;;;;;;;5118000;27;20051;-74
2023/12/23 05:13:44;;;;;;;11.70;10.27;;;;;;;;;;5084680;27;20066;-74
2023/12/23 05:16:09;;;;;;;5.78;5.28;;;;;;;;;;5122213;27;20102;-73
2023/12/23 05:18:35;;;;;;;9.55;8.70;;;;;;;;;;5093885;27;20518;-74
2023/12/23 05:21:01;;;;;;;8.88;6.80;;;;;;;;;;5101706;27;20042;-74
2023/12/23 05:23:27;;;;;;;11.05;9.93;;;;;;;;;;5097689;27;20039;-73
2023/12/23 05:25:56;;;;;;;7.95;7.25;;;;;;;;;;5114117;27;20034;-74
2023/12/23 05:28:22;;;;;;;8.05;7.38;;;;;;;;;;5113891;27;20035;-71
2023/12/23 05:30:48;;;;;;;8.52;6.40;;;;;;;;;;5125542;27;20054;-73
2023/12/23 05:33:13;;;;;;;6.63;6.00;;;;;;;;;;5130245;27;20073;-70
2023/12/23 05:35:39;;;;;;;9.07;7.45;;;;;;;;;;5095158;27;20063;-71
2023/12/23 05:38:05;;;;;;;10.93;9.90;;;;;;;;;;5112478;27;20035;-70
2023/12/23 05:40:31;;;;;;;9.30;8.50;;;;;;;;;;5061842;27;20110;-71
2023/12/23 05:42:57;;;;;;;11.43;8.98;;;;;;;;;;5112768;27;20126;-70
2023/12/23 05:45:23;;;;;;;10.65;8.13;;;;;;;;;;5079372;27;20031;-70
2023/12/23 05:47:50;;;;;;;11.85;10.65;;;;;;;;;;5072391;27;20450;-71
2023/12/23 05:50:16;;;;;;;10.05;9.13;;;;;;;;;;5107558;27;20024;-71
2023/12/23 05:52:44;;;;;;;10.82;8.70;;;;;;;;;;5123256;27;20122;-72
2023/12/23 05:55:09;;;;;;;9.98;8.88;;;;;;;;;;5130375;27;20114;-71
2023/12/23 05:57:35;;;;;;;9.25;8.38;;;;;;;;;;5110524;27;20115;-70
2023/12/23 06:00:05;;;;;;;15.98;12.60;;;;;;;;;;5130708;27;20027;-71
2023/12/23 06:02:38;;;;;;;10.20;9.25;;;;;;;;;;5131092;27;20559;-71
2023/12/23 06:05:04;;;;;;;12.55;10.27;;;;;;;;;;5092442;27;20039;-69
2023/12/23 06:07:30;;;;;;;10.68;9.68;;;;;;;;;;5130227;27;20027;-71
2023/12/23 06:09:57;;;;;;;17.63;14.02;;;;;;;;;;5125731;27;20037;-71
2023/12/23 06:12:23;;;;;;;10.52;9.52;;;;;;;;;;5127155;27;20492;-70
2023/12/23 06:14:50;;;;;;;11.55;10.48;;;;;;;;;;5125254;27;20031;-70
2023/12/23 06:17:16;;;;;;;16.27;10.93;;;;;;;;;;5128576;27;20038;-70
2023/12/23 06:19:42;;;;;;;14.15;10.85;;;;;;;;;;5111555;27;20042;-70
2023/12/23 06:22:08;;;;;;;11.77;8.95;;;;;;;;;;5130177;27;20035;-70
2023/12/23 06:24:34;;;;;;;12.15;9.90;;;;;;;;;;5092249;27;20031;-69
2023/12/23 06:27:00;;;;;;;10.98;9.88;;;;;;;;;;5129701;27;20035;-70
2023/12/23 06:29:26;;;;;;;15.63;10.32;;;;;;;;;;5130079;27;20035;-70
2023/12/23 06:31:51;;;;;;;9.15;7.95;;;;;;;;;;5108739;27;20043;-70
2023/12/23 06:34:17;;;;;;;17.90;12.30;;;;;;;;;;5111640;27;20030;-70
2023/12/23 06:36:43;;;;;;;30.58;17.92;;;;;;;;;;5110778;27;20414;-71
2023/12/23 06:39:09;;;;;;;16.73;11.23;;;;;;;;;;5125902;27;20076;-69
2023/12/23 06:41:35;;;;;;;14.48;11.07;;;;;;;;;;5108403;27;20379;-72
2023/12/23 06:44:01;;;;;;;18.15;12.80;;;;;;;;;;5107943;27;20027;-70
2023/12/23 06:46:27;;;;;;;18.10;11.95;;;;;;;;;;5109420;27;20023;-71
2023/12/23 06:48:52;;;;;;;16.27;10.88;;;;;;;;;;5129753;27;20430;-71
2023/12/23 06:51:18;;;;;;;20.38;12.07;;;;;;;;;;5129464;27;20374;-72
2023/12/23 06:53:44;;;;;;;23.60;14.25;;;;;;;;;;5111406;27;20023;-70
2023/12/23 06:56:10;;;;;;;19.95;12.13;;;;;;;;;;5111238;27;20524;-70
2023/12/23 06:58:37;;;;;;;13.65;11.27;;;;;;;;;;5129809;27;20401;-72
2023/12/23 07:01:03;;;;;;;23.80;14.98;;;;;;;;;;5105404;27;20118;-72
2023/12/23 07:03:28;;;;;;;25.65;14.15;;;;;;;;;;5124159;27;20752;-71
2023/12/23 07:05:54;;;;;;;16.92;11.00;;;;;;;;;;5126012;27;20510;-70
2023/12/23 07:08:20;;;;;;;22.98;14.43;;;;;;;;;;5111044;27;20051;-72
2023/12/23 07:10:46;;;;;;;20.05;11.25;;;;;;;;;;5111061;28;20076;-71
2023/12/23 07:13:12;;;;;;;26.92;14.18;;;;;;;;;;5129353;27;20065;-71
2023/12/23 07:15:38;;;;;;;29.00;17.10;;;;;;;;;;5110773;27;20035;-72
2023/12/23 07:18:04;;;;;;;19.50;12.90;;;;;;;;;;5129395;27;20155;-72
2023/12/23 07:20:30;;;;;;;32.22;16.45;;;;;;;;;;5110813;27;20448;-71
2023/12/23 07:22:56;;;;;;;30.80;14.90;;;;;;;;;;5094122;28;20111;-71
2023/12/23 07:25:21;;;;;;;28.73;14.82;;;;;;;;;;5129138;27;20473;-71
2023/12/23 07:27:47;;;;;;;20.05;14.23;;;;;;;;;;5111184;27;20065;-70
2023/12/23 07:30:14;;;;;;;28.88;17.38;;;;;;;;;;5093487;27;20020;-70
2023/12/23 07:32:40;;;;;;;28.30;14.43;;;;;;;;;;5081403;28;20063;-71
2023/12/23 07:35:06;;;;;;;19.77;13.18;;;;;;;;;;5093483;28;20459;-70
2023/12/23 07:37:32;;;;;;;28.38;15.52;;;;;;;;;;5087421;28;20070;-71
2023/12/23 07:39:57;;;;;;;25.27;15.00;;;;;;;;;;5088634;28;20647;-70
2023/12/23 07:42:23;;;;;;;25.60;16.23;;;;;;;;;;5088764;28;20774;-70
2023/12/23 07:44:49;;;;;;;22.58;14.88;;;;;;;;;;5088871;28;20119;-70
2023/12/23 07:47:16;;;;;;;20.65;14.65;;;;;;;;;;5086374;28;20515;-71
2023/12/23 07:49:42;;;;;;;18.67;12.80;;;;;;;;;;5082929;28;20038;-71
2023/12/23 07:52:08;;;;;;;21.30;15.43;;;;;;;;;;5088160;28;20131;-71
2023/12/23 07:54:34;;;;;;;25.27;14.15;;;;;;;;;;5088405;28;20491;-69
2023/12/23 07:57:00;;;;;;;25.58;15.80;;;;;;;;;;5087935;28;20047;-70
2023/12/23 07:59:25;;;;;;;21.95;14.52;;;;;;;;;;5088152;28;20061;-70
2023/12/23 08:01:51;;;;;;;26.70;14.57;;;;;;;;;;5086470;28;20028;-71
2023/12/23 08:04:17;;;;;;;25.27;15.85;;;;;;;;;;5087930;28;20032;-71
2023/12/23 08:06:43;;;;;;;21.00;13.60;;;;;;;;;;5086840;28;20509;-70
2023/12/23 08:09:10;;;;;;;24.65;15.90;;;;;;;;;;5088382;28;20032;-70
2023/12/23 08:11:36;;;;;;;34.42;19.85;;;;;;;;;;5075491;28;20047;-70
2023/12/23 08:14:02;;;;;;;17.42;12.32;;;;;;;;;;5103590;28;20024;-70
2023/12/23 08:16:28;;;;;;;22.25;14.27;;;;;;;;;;5089336;28;20067;-71
2023/12/23 08:18:54;;;;;;;19.17;12.68;;;;;;;;;;5086384;28;20032;-70
2023/12/23 08:21:21;;;;;;;18.98;14.30;;;;;;;;;;5092104;28;20032;-70
2023/12/23 08:23:47;;;;;;;19.02;13.80;;;;;;;;;;5099122;28;20020;-71
2023/12/23 08:26:12;;;;;;;23.05;14.50;;;;;;;;;;5061748;28;20032;-71
2023/12/23 08:28:38;;;;;;;14.82;12.10;;;;;;;;;;5099907;28;20031;-71
2023/12/23 08:31:05;;;;;;;23.08;15.32;;;;;;;;;;5081324;28;20052;-71
2023/12/23 08:33:34;;;;;;;23.85;15.88;;;;;;;;;;5091720;28;20123;-71
2023/12/23 08:36:00;;;;;;;21.63;14.57;;;;;;;;;;5091589;28;20102;-70
2023/12/23 08:38:26;;;;;;;22.23;14.18;;;;;;;;;;5073096;28;20045;-70
2023/12/23 08:40:52;;;;;;;18.75;13.68;;;;;;;;;;5071132;28;20559;-70
2023/12/23 08:43:18;;;;;;;14.23;12.18;;;;;;;;;;5091035;28;20126;-71
2023/12/23 08:45:43;;;;;;;19.33;13.45;;;;;;;;;;5073959;28;20035;-71
2023/12/23 08:48:09;;;;;;;18.38;14.07;;;;;;;;;;5086981;28;20081;-71
2023/12/23 08:50:38;;;;;;;26.73;18.38;;;;;;;;;;5069101;28;20037;-71
2023/12/23 08:53:04;;;;;;;15.18;11.85;;;;;;;;;;5081716;28;20032;-71
2023/12/23 08:55:30;;;;;;;22.52;16.02;;;;;;;;;;5073005;28;20020;-70
2023/12/23 08:57:56;;;;;;;20.38;14.10;;;;;;;;;;5092369;28;20145;-71
2023/12/23 09:00:22;;;;;;;20.30;13.30;;;;;;;;;;5091687;28;20050;-71
2023/12/23 09:02:47;;;;;;;13.48;11.65;;;;;;;;;;5073919;28;20024;-70
2023/12/23 09:05:13;;;;;;;14.52;12.52;;;;;;;;;;5092641;28;20511;-71
2023/12/23 09:07:39;;;;;;;13.20;10.90;;;;;;;;;;5091619;28;20064;-70
2023/12/23 09:10:05;;;;;;;14.00;12.57;;;;;;;;;;5082596;28;20070;-71
2023/12/23 09:12:35;;;;;;;10.52;9.20;;;;;;;;;;5057389;28;20040;-71
2023/12/23 09:15:01;;;;;;;9.93;8.93;;;;;;;;;;5053059;28;20562;-71
2023/12/23 09:17:27;;;;;;;11.88;10.70;;;;;;;;;;5070916;28;20032;-70
2023/12/23 09:19:53;;;;;;;8.43;7.57;;;;;;;;;;5071075;28;20032;-70
2023/12/23 09:22:19;;;;;;;11.80;10.70;;;;;;;;;;5070335;28;20155;-70
2023/12/23 09:24:45;;;;;;;10.60;9.63;;;;;;;;;;5070764;28;20044;-71
2023/12/23 09:27:11;;;;;;;8.07;7.38;;;;;;;;;;5068964;28;20024;-70
2023/12/23 09:29:37;;;;;;;10.00;9.20;;;;;;;;;;5086298;28;20036;-69
2023/12/23 09:32:03;;;;;;;6.57;5.97;;;;;;;;;;5097229;28;20100;-70
2023/12/23 09:34:29;;;;;;;8.43;7.72;;;;;;;;;;5111294;28;20067;-70
2023/12/23 09:36:55;;;;;;;9.70;8.90;;;;;;;;;;5125574;27;20035;-71
2023/12/23 09:39:21;;;;;;;8.50;7.80;;;;;;;;;;5110007;27;20067;-70
2023/12/23 09:41:47;;;;;;;9.13;8.32;;;;;;;;;;5117482;27;20097;-71
2023/12/23 09:44:13;;;;;;;7.63;6.47;;;;;;;;;;5122261;27;20118;-70
2023/12/23 09:46:39;;;;;;;8.27;7.57;;;;;;;;;;5113046;27;20096;-71
2023/12/23 09:49:04;;;;;;;7.95;7.35;;;;;;;;;;5095888;27;20056;-72
2023/12/23 09:51:30;;;;;;;8.43;7.72;;;;;;;;;;5112700;27;20235;-71
2023/12/23 09:53:58;;;;;;;6.30;5.80;;;;;;;;;;5131424;27;20118;-71
2023/12/23 09:56:24;;;;;;;7.78;7.07;;;;;;;;;;5131376;27;20041;-69
2023/12/23 09:58:50;;;;;;;7.13;6.53;;;;;;;;;;5131704;27;20058;-71
2023/12/23 10:01:16;;;;;;;6.32;5.82;;;;;;;;;;5112613;27;20502;-71
2023/12/23 10:03:41;;;;;;;6.35;5.95;;;;;;;;;;5131276;27;20042;-71
2023/12/23 10:06:07;;;;;;;6.75;6.25;;;;;;;;;;5126594;27;20668;-71
2023/12/23 10:08:33;;;;;;;7.63;7.03;;;;;;;;;;5095485;27;20123;-71
2023/12/23 10:10:59;;;;;;;6.50;6.00;;;;;;;;;;5121450;27;20564;-70
2023/12/23 10:13:25;;;;;;;7.20;6.60;;;;;;;;;;5129217;27;20091;-70
2023/12/23 10:15:51;;;;;;;7.07;6.50;;;;;;;;;;5130525;27;20042;-70
2023/12/23 10:18:16;;;;;;;7.40;6.70;;;;;;;;;;5112168;27;20042;-71
2023/12/23 10:20:43;;;;;;;7.82;7.22;;;;;;;;;;5111109;27;20439;-69
2023/12/23 10:23:09;;;;;;;6.22;5.80;;;;;;;;;;5113999;27;20143;-68
2023/12/23 10:25:35;;;;;;;7.78;7.03;;;;;;;;;;5111307;27;20110;-70
2023/12/23 10:28:00;;;;;;;5.55;5.15;;;;;;;;;;5128444;27;20526;-71
2023/12/23 10:30:28;;;;;;;6.90;6.40;;;;;;;;;;5111686;27;20073;-70
2023/12/23 10:32:54;;;;;;;7.13;6.55;;;;;;;;;;5112228;27;20053;-70
2023/12/23 10:35:20;;;;;;;5.85;5.35;;;;;;;;;;5115513;27;20023;-69
2023/12/23 10:37:46;;;;;;;5.72;5.25;;;;;;;;;;5126422;27;20126;-72
2023/12/23 10:40:14;;;;;;;5.82;5.43;;;;;;;;;;5102070;27;20039;-71
2023/12/23 10:42:40;;;;;;;6.00;5.53;;;;;;;;;;5099985;27;20031;-71
2023/12/23 10:45:07;;;;;;;5.90;5.50;;;;;;;;;;5113911;27;20035;-70
2023/12/23 10:47:33;;;;;;;6.30;5.82;;;;;;;;;;5128905;27;20031;-72
2023/12/23 10:50:00;;;;;;;5.78;5.38;;;;;;;;;;5113657;27;20144;-70
2023/12/23 10:52:26;;;;;;;5.38;4.97;;;;;;;;;;5126968;27;20535;-70
2023/12/23 10:54:52;;;;;;;5.50;5.10;;;;;;;;;;5127497;27;20019;-70
2023/12/23 10:57:18;;;;;;;5.50;5.10;;;;;;;;;;5104878;27;20080;-72
2023/12/23 10:59:44;;;;;;;5.72;5.30;;;;;;;;;;5104678;27;20041;-72
2023/12/23 11:02:13;;;;;;;4.97;4.68;;;;;;;;;;5125288;27;20114;-71
2023/12/23 11:04:40;;;;;;;5.22;4.82;;;;;;;;;;5110131;27;20512;-71
2023/12/23 11:07:05;;;;;;;5.18;4.80;;;;;;;;;;5095209;27;20035;-71
2023/12/23 11:09:32;;;;;;;6.55;5.95;;;;;;;;;;5133485;27;20094;-71
2023/12/23 11:11:57;;;;;;;5.93;5.43;;;;;;;;;;5129491;27;20050;-72
2023/12/23 11:14:23;;;;;;;5.40;4.90;;;;;;;;;;5111717;27;20022;-71
2023/12/23 11:16:50;;;;;;;6.40;5.90;;;;;;;;;;5130233;27;20515;-71
2023/12/23 11:19:16;;;;;;;5.93;5.45;;;;;;;;;;5129930;27;20098;-71
2023/12/23 11:21:41;;;;;;;7.28;6.05;;;;;;;;;;5111326;27;20046;-72
2023/12/23 11:24:26;;;;;;;4.97;4.68;;;;;;;;;;5093733;27;20027;-71
2023/12/23 11:26:54;;;;;;;6.30;5.72;;;;;;;;;;5130099;27;20045;-72
2023/12/23 11:29:22;;;;;;;5.43;5.03;;;;;;;;;;5111164;27;20558;-72
2023/12/23 11:31:49;;;;;;;6.70;6.20;;;;;;;;;;5111666;27;20051;-71
2023/12/23 11:34:16;;;;;;;5.30;4.95;;;;;;;;;;5094586;28;20035;-71
2023/12/23 11:36:43;;;;;;;5.80;5.38;;;;;;;;;;5109414;28;20044;-71
2023/12/23 11:39:13;;;;;;;5.50;5.20;;;;;;;;;;5091135;28;20032;-71
2023/12/23 11:41:40;;;;;;;5.73;5.30;;;;;;;;;;5109407;28;20142;-71
2023/12/23 11:44:06;;;;;;;5.43;4.95;;;;;;;;;;5074129;28;20036;-72
2023/12/23 11:46:31;;;;;;;6.32;5.88;;;;;;;;;;5073914;28;20051;-71
2023/12/23 11:48:59;;;;;;;5.95;5.50;;;;;;;;;;5109173;28;20119;-72
2023/12/23 11:51:25;;;;;;;6.07;5.60;;;;;;;;;;5108914;28;20541;-71
2023/12/23 11:53:53;;;;;;;7.50;6.80;;;;;;;;;;5109176;28;20035;-71
2023/12/23 11:56:19;;;;;;;6.63;6.03;;;;;;;;;;5073731;28;20039;-71
2023/12/23 11:58:45;;;;;;;6.07;5.57;;;;;;;;;;5091277;28;20031;-71
2023/12/23 12:01:10;;;;;;;7.10;6.50;;;;;;;;;;5109500;28;20091;-72
2023/12/23 12:03:37;;;;;;;6.32;5.85;;;;;;;;;;5110316;28;20035;-71
2023/12/23 12:06:02;;;;;;;6.22;5.72;;;;;;;;;;5094494;28;20036;-70
2023/12/23 12:08:28;;;;;;;8.85;7.68;;;;;;;;;;5095256;27;20152;-71
2023/12/23 12:10:58;;;;;;;6.03;5.55;;;;;;;;;;5133077;27;20043;-71
2023/12/23 12:13:28;;;;;;;6.30;5.80;;;;;;;;;;5098045;27;20108;-71
2023/12/23 12:15:54;;;;;;;5.37;4.93;;;;;;;;;;5115069;27;20110;-71
2023/12/23 12:18:20;;;;;;;6.43;5.93;;;;;;;;;;5133058;27;20118;-71
2023/12/23 12:20:46;;;;;;;6.80;6.18;;;;;;;;;;5132931;27;20453;-70
2023/12/23 12:23:15;;;;;;;5.40;4.90;;;;;;;;;;5132811;27;20038;-70
2023/12/23 12:25:50;;;;;;;5.70;5.25;;;;;;;;;;5115240;27;20039;-71
2023/12/23 12:28:17;;;;;;;6.32;5.78;;;;;;;;;;5114469;27;20043;-71
2023/12/23 12:30:46;;;;;;;6.53;4.68;;;;;;;;;;5132709;27;20567;-70
2023/12/23 12:33:11;;;;;;;5.68;5.18;;;;;;;;;;5114626;27;20077;-71
2023/12/23 12:35:37;;;;;;;5.22;4.82;;;;;;;;;;5114324;27;20059;-71
2023/12/23 12:38:03;;;;;;;5.43;5.03;;;;;;;;;;5113887;27;20944;-70
2023/12/23 12:40:36;;;;;;;6.03;5.53;;;;;;;;;;5132297;27;20451;-71
2023/12/23 12:43:05;;;;;;;6.70;6.05;;;;;;;;;;5132926;27;20035;-70
2023/12/23 12:45:38;;;;;;;7.88;6.75;;;;;;;;;;5097263;27;20034;-71
2023/12/23 12:48:10;;;;;;;6.72;6.10;;;;;;;;;;5114267;27;20126;-70
2023/12/23 12:50:40;;;;;;;8.02;6.72;;;;;;;;;;5132462;27;20035;-70
2023/12/23 12:53:06;;;;;;;6.05;5.55;;;;;;;;;;5132313;27;20364;-71
2023/12/23 12:55:32;;;;;;;11.55;7.80;;;;;;;;;;5114064;27;20034;-70
2023/12/23 12:57:58;;;;;;;5.63;5.22;;;;;;;;;;5113820;27;20038;-70
2023/12/23 13:00:26;;;;;;;6.03;5.63;;;;;;;;;;5113593;27;20038;-73
2023/12/23 13:02:52;;;;;;;7.88;6.70;;;;;;;;;;5114169;27;20060;-71
2023/12/23 13:05:18;;;;;;;6.05;5.55;;;;;;;;;;5132163;27;20046;-70
2023/12/23 13:07:44;;;;;;;7.88;6.57;;;;;;;;;;5113726;27;20031;-70
2023/12/23 13:10:10;;;;;;;6.57;6.07;;;;;;;;;;5132115;27;20091;-71
2023/12/23 13:12:36;;;;;;;6.65;6.10;;;;;;;;;;5113630;27;20053;-71
2023/12/23 13:15:02;;;;;;;7.80;6.78;;;;;;;;;;5113481;27;20110;-70
2023/12/23 13:17:30;;;;;;;7.85;6.78;;;;;;;;;;5131833;27;20104;-70
2023/12/23 13:19:56;;;;;;;7.80;7.03;;;;;;;;;;5132083;27;20154;-70
2023/12/23 13:22:22;;;;;;;7.35;6.70;;;;;;;;;;5131577;27;20115;-70
2023/12/23 13:24:48;;;;;;;7.93;6.95;;;;;;;;;;5132087;27;20042;-71
2023/12/23 13:27:14;;;;;;;8.07;6.97;;;;;;;;;;5113519;27;20034;-70
2023/12/23 13:29:40;;;;;;;8.05;7.15;;;;;;;;;;5131664;27;20035;-71
2023/12/23 13:32:07;;;;;;;14.60;11.43;;;;;;;;;;5112962;27;20063;-71
2023/12/23 13:34:33;;;;;;;10.05;8.98;;;;;;;;;;5113197;27;20054;-71
2023/12/23 13:36:59;;;;;;;8.85;7.50;;;;;;;;;;5113369;27;20065;-70
2023/12/23 13:39:25;;;;;;;8.23;7.55;;;;;;;;;;5112823;27;20130;-71
2023/12/23 13:41:51;;;;;;;7.60;7.00;;;;;;;;;;5096209;27;20031;-70
2023/12/23 13:44:17;;;;;;;7.55;6.53;;;;;;;;;;5113102;27;20027;-71
2023/12/23 13:46:44;;;;;;;8.55;7.78;;;;;;;;;;5131619;27;20057;-71
2023/12/23 13:49:10;;;;;;;7.15;6.55;;;;;;;;;;5112955;27;20034;-70
2023/12/23 13:51:36;;;;;;;7.53;6.82;;;;;;;;;;5095755;27;20168;-71
2023/12/23 13:54:02;;;;;;;6.72;6.22;;;;;;;;;;5131496;27;20118;-71
2023/12/23 13:56:28;;;;;;;7.95;7.22;;;;;;;;;;5112880;27;20114;-70
2023/12/23 13:58:54;;;;;;;6.28;5.63;;;;;;;;;;5131764;27;20387;-70
2023/12/23 14:01:20;;;;;;;8.48;7.07;;;;;;;;;;5132172;27;20156;-70
2023/12/23 14:03:46;;;;;;;8.48;7.07;;;;;;;;;;5133698;27;20063;-70
2023/12/23 14:06:12;;;;;;;7.07;6.47;;;;;;;;;;5131654;27;20035;-70
2023/12/23 14:08:38;;;;;;;7.28;6.53;;;;;;;;;;5112832;27;20046;-71
2023/12/23 14:11:04;;;;;;;8.23;7.53;;;;;;;;;;5112915;27;20534;-70
2023/12/23 14:13:30;;;;;;;7.63;7.00;;;;;;;;;;5112786;27;20522;-70
2023/12/23 14:15:56;;;;;;;8.00;7.22;;;;;;;;;;5130166;27;20019;-70
2023/12/23 14:18:21;;;;;;;7.03;6.45;;;;;;;;;;5129590;27;20088;-70
2023/12/23 14:20:47;;;;;;;6.82;6.32;;;;;;;;;;5128191;27;20019;-70
2023/12/23 14:23:14;;;;;;;6.90;6.30;;;;;;;;;;5130287;27;20035;-70
2023/12/23 14:25:40;;;;;;;7.35;6.65;;;;;;;;;;5111811;27;20039;-70